createdAt,value
2022-08-31T00:00:31.149Z,1.65
2022-08-31T00:03:17.028Z,4.60
2022-08-31T00:08:11.044Z,1.13
2022-08-31T00:10:43.284Z,2.10
2022-08-31T00:13:13.645Z,4.65
2022-08-31T00:15:40.927Z,1.85
2022-08-31T00:18:07.849Z,1.42
2022-08-31T00:20:35.880Z,3.10
2022-08-31T00:23:10.784Z,1.65
2022-08-31T00:25:41.866Z,3.15
2022-08-31T00:28:10.762Z,3.80
2022-08-31T00:30:38.395Z,7.57
2022-08-31T00:33:06.005Z,2.00
2022-08-31T00:35:36.161Z,1.25
2022-08-31T00:38:05.200Z,1.85
2022-08-31T00:40:33.596Z,4.57
2022-08-31T00:43:11.585Z,1.85
2022-08-31T00:45:38.576Z,1.52
2022-08-31T00:48:05.610Z,1.77
2022-08-31T00:50:32.976Z,1.58
2022-08-31T00:53:01.732Z,4.18
2022-08-31T00:55:34.659Z,4.15
2022-08-31T00:58:07.581Z,4.50
2022-08-31T01:00:34.995Z,1.77
2022-08-31T01:03:04.155Z,1.83
2022-08-31T01:05:32.311Z,3.22
2022-08-31T01:08:00.708Z,3.97
2022-08-31T01:10:37.353Z,2.00
2022-08-31T01:13:06.193Z,3.33
2022-08-31T01:15:33.526Z,7.68
2022-08-31T01:18:04.449Z,3.13
2022-08-31T01:20:54.934Z,8.43
2022-08-31T01:23:45.298Z,26.58
2022-08-31T01:26:18.142Z,17.20
2022-08-31T01:28:47.764Z,6.95
2022-08-31T01:31:23.175Z,3.33
2022-08-31T01:33:50.962Z,6.00
2022-08-31T01:36:18.836Z,6.15
2022-08-31T01:38:46.305Z,7.53
2022-08-31T01:41:19.683Z,2.45
2022-08-31T01:43:46.602Z,7.10
2022-08-31T01:46:14.328Z,3.03
2022-08-31T01:48:44.294Z,2.80
2022-08-31T01:51:14.925Z,3.65
2022-08-31T01:53:45.705Z,3.97
2022-08-31T01:56:26.114Z,3.42
2022-08-31T01:58:54.296Z,3.10
2022-08-31T02:01:51.001Z,1.23
2022-08-31T02:04:20.998Z,3.50
2022-08-31T02:06:52.873Z,2.88
2022-08-31T02:09:22.270Z,1.80
2022-08-31T02:11:51.139Z,1.90
2022-08-31T02:14:19.509Z,5.10
2022-08-31T02:16:47.628Z,5.13
2022-08-31T02:19:17.712Z,1.63
2022-08-31T02:21:44.632Z,2.35
2022-08-31T02:24:12.377Z,3.83
2022-08-31T02:26:40.676Z,2.95
2022-08-31T02:29:08.609Z,3.17
2022-08-31T02:31:36.069Z,1.52
2022-08-31T02:34:03.561Z,4.50
2022-08-31T02:36:32.276Z,3.50
2022-08-31T02:39:02.637Z,1.40
2022-08-31T02:41:31.304Z,6.35
2022-08-31T02:43:58.254Z,2.72
2022-08-31T02:46:25.234Z,3.28
2022-08-31T02:49:03.972Z,3.15
2022-08-31T02:51:30.852Z,1.77
2022-08-31T02:53:58.005Z,2.28
2022-08-31T02:56:25.947Z,1.85
2022-08-31T02:58:55.253Z,1.40
2022-08-31T03:01:26.495Z,1.38
2022-08-31T03:03:53.485Z,4.95
2022-08-31T03:06:22.817Z,2.80
2022-08-31T03:08:50.571Z,2.50
2022-08-31T03:11:18.121Z,4.28
2022-08-31T03:13:45.470Z,3.45
2022-08-31T03:16:15.451Z,4.10
2022-08-31T03:18:42.552Z,6.35
2022-08-31T03:21:09.643Z,2.28
2022-08-31T03:23:37.593Z,1.33
2022-08-31T03:26:05.948Z,1.45
2022-08-31T03:28:34.782Z,4.88
2022-08-31T03:31:23.734Z,2.13
2022-08-31T03:33:50.911Z,2.05
2022-08-31T03:36:18.207Z,0.95
2022-08-31T03:38:45.176Z,2.08
2022-08-31T03:41:16.394Z,2.10
2022-08-31T03:43:44.299Z,1.30
2022-08-31T03:46:12.058Z,2.33
2022-08-31T03:48:42.285Z,1.35
2022-08-31T03:51:09.831Z,3.65
2022-08-31T03:53:37.342Z,1.95
2022-08-31T03:56:08.610Z,1.60
2022-08-31T03:58:39.115Z,8.35
2022-08-31T04:01:07.157Z,1.80
2022-08-31T04:03:52.781Z,2.97
2022-08-31T04:06:41.536Z,2.33
2022-08-31T04:09:27.037Z,3.33
2022-08-31T04:12:15.932Z,1.15
2022-08-31T04:15:02.362Z,1.50
2022-08-31T04:18:05.112Z,10.38
2022-08-31T04:20:47.491Z,2.33
2022-08-31T04:23:14.661Z,0.80
2022-08-31T04:25:52.136Z,1.50
2022-08-31T04:28:19.103Z,2.78
2022-08-31T04:30:46.729Z,1.15
2022-08-31T04:33:16.913Z,0.73
2022-08-31T04:35:44.541Z,1.33
2022-08-31T04:38:12.123Z,0.98
2022-08-31T04:40:42.810Z,0.95
2022-08-31T04:43:11.127Z,1.88
2022-08-31T04:45:46.167Z,4.15
2022-08-31T04:48:14.457Z,1.63
2022-08-31T04:50:43.227Z,1.02
2022-08-31T04:53:11.145Z,1.52
2022-08-31T04:55:42.250Z,1.60
2022-08-31T04:58:15.100Z,0.60
2022-08-31T05:00:44.023Z,1.95
2022-08-31T05:03:26.190Z,1.05
2022-08-31T05:05:55.377Z,1.65
2022-08-31T05:08:22.584Z,0.95
2022-08-31T05:10:49.814Z,2.22
2022-08-31T05:13:16.790Z,1.20
2022-08-31T05:15:44.578Z,3.20
2022-08-31T05:18:22.493Z,0.98
2022-08-31T05:20:55.658Z,2.28
2022-08-31T05:23:22.612Z,2.55
2022-08-31T05:25:49.938Z,2.25
2022-08-31T05:28:21.969Z,1.27
2022-08-31T05:30:48.952Z,0.68
2022-08-31T05:33:40.237Z,3.30
2022-08-31T05:36:07.927Z,1.25
2022-08-31T05:38:38.622Z,1.42
2022-08-31T05:41:07.763Z,1.02
2022-08-31T05:43:35.226Z,2.72
2022-08-31T05:46:10.288Z,1.45
2022-08-31T05:48:38.389Z,1.35
2022-08-31T05:51:15.222Z,0.93
2022-08-31T05:53:43.493Z,2.28
2022-08-31T05:56:21.843Z,1.75
2022-08-31T05:58:53.988Z,3.25
2022-08-31T06:01:33.463Z,1.88
2022-08-31T06:04:13.091Z,1.25
2022-08-31T06:06:41.443Z,1.05
2022-08-31T06:09:11.951Z,1.67
2022-08-31T06:11:42.194Z,1.23
2022-08-31T06:14:13.034Z,1.38
2022-08-31T06:16:44.868Z,0.77
2022-08-31T06:19:15.215Z,1.30
2022-08-31T06:21:49.280Z,3.88
2022-08-31T06:24:20.835Z,4.63
2022-08-31T06:26:58.345Z,1.13
2022-08-31T06:29:31.488Z,3.55
2022-08-31T06:32:00.465Z,2.65
2022-08-31T06:34:29.296Z,3.33
2022-08-31T06:37:06.659Z,1.75
2022-08-31T06:39:34.311Z,4.47
2022-08-31T06:42:16.553Z,1.42
2022-08-31T06:44:52.653Z,3.05
2022-08-31T06:47:24.200Z,1.85
2022-08-31T06:49:52.977Z,2.17
2022-08-31T06:52:21.099Z,3.47
2022-08-31T06:55:02.576Z,1.13
2022-08-31T06:57:48.562Z,1.45
2022-08-31T07:00:41.228Z,1.20
2022-08-31T07:03:39.036Z,1.77
2022-08-31T07:06:13.048Z,1.45
2022-08-31T07:08:41.234Z,2.22
2022-08-31T07:11:20.834Z,4.07
2022-08-31T07:13:48.756Z,1.42
2022-08-31T07:16:19.174Z,1.42
2022-08-31T07:18:47.895Z,1.67
2022-08-31T07:21:25.175Z,2.80
2022-08-31T07:23:54.424Z,1.17
2022-08-31T07:26:27.755Z,1.33
2022-08-31T07:28:57.199Z,0.90
2022-08-31T07:31:30.290Z,1.40
2022-08-31T07:33:57.318Z,8.05
2022-08-31T07:36:26.648Z,2.33
2022-08-31T07:39:14.869Z,1.17
2022-08-31T07:42:00.414Z,3.15
2022-08-31T07:44:27.762Z,2.33
2022-08-31T07:46:55.305Z,1.30
2022-08-31T07:49:24.335Z,2.85
2022-08-31T07:52:00.009Z,3.55
2022-08-31T07:54:46.186Z,3.10
2022-08-31T07:57:27.259Z,2.25
2022-08-31T08:00:08.655Z,2.00
2022-08-31T08:02:50.885Z,1.33
2022-08-31T08:05:27.709Z,5.22
2022-08-31T08:08:15.602Z,3.53
2022-08-31T08:11:03.302Z,2.67
2022-08-31T08:13:54.374Z,3.00
2022-08-31T08:19:07.183Z,3.33
2022-08-31T08:21:34.411Z,3.33
2022-08-31T08:24:02.305Z,1.88
2022-08-31T08:27:05.805Z,1.25
2022-08-31T08:29:46.475Z,1.80
2022-08-31T08:32:19.949Z,0.90
2022-08-31T08:34:47.175Z,1.38
2022-08-31T08:37:15.043Z,1.83
2022-08-31T08:39:43.135Z,0.80
2022-08-31T08:42:20.909Z,2.88
2022-08-31T08:44:48.244Z,1.45
2022-08-31T08:47:24.828Z,4.03
2022-08-31T08:50:05.350Z,2.38
2022-08-31T08:52:45.110Z,4.28
2022-08-31T08:55:22.218Z,2.38
2022-08-31T08:57:52.395Z,1.38
2022-08-31T09:00:25.046Z,2.30
2022-08-31T09:03:08.691Z,3.60
2022-08-31T09:06:09.693Z,2.60
2022-08-31T09:08:59.721Z,3.75
2022-08-31T09:11:57.922Z,3.15
2022-08-31T09:14:53.722Z,1.83
2022-08-31T09:17:46.867Z,2.55
2022-08-31T09:20:16.552Z,2.88
2022-08-31T09:22:53.184Z,1.17
2022-08-31T09:25:52.217Z,1.63
2022-08-31T09:28:48.350Z,4.85
2022-08-31T09:31:37.343Z,2.08
2022-08-31T09:34:31.290Z,3.50
2022-08-31T09:37:16.639Z,2.85
2022-08-31T09:39:49.887Z,2.83
2022-08-31T09:42:33.834Z,4.97
2022-08-31T09:45:18.477Z,5.68
2022-08-31T09:47:58.349Z,3.45
2022-08-31T09:50:28.480Z,1.58
2022-08-31T09:53:41.199Z,3.30
2022-08-31T09:56:16.345Z,1.42
2022-08-31T09:58:45.839Z,0.90
2022-08-31T10:01:45.777Z,7.13
2022-08-31T10:04:26.835Z,3.05
2022-08-31T10:07:26.038Z,2.75
2022-08-31T10:10:31.090Z,2.22
2022-08-31T10:13:15.415Z,2.10
2022-08-31T10:16:14.474Z,2.28
2022-08-31T10:19:01.986Z,1.33
2022-08-31T10:21:54.752Z,3.75
2022-08-31T10:24:39.495Z,1.38
2022-08-31T10:27:26.070Z,2.03
2022-08-31T10:30:05.869Z,2.92
2022-08-31T10:32:40.854Z,1.48
2022-08-31T10:35:19.662Z,0.95
2022-08-31T10:38:08.237Z,8.10
2022-08-31T10:41:04.166Z,2.15
2022-08-31T10:46:02.351Z,1.92
2022-08-31T10:48:29.395Z,3.63
2022-08-31T10:51:14.453Z,4.63
2022-08-31T10:54:22.039Z,1.95
2022-08-31T10:57:39.986Z,1.42
2022-08-31T11:00:34.773Z,8.20
2022-08-31T11:03:48.963Z,1.10
2022-08-31T11:06:47.882Z,3.20
2022-08-31T11:09:24.740Z,1.30
2022-08-31T11:12:07.465Z,0.93
2022-08-31T11:15:22.542Z,3.80
2022-08-31T11:17:55.571Z,2.05
2022-08-31T11:20:55.011Z,3.45
2022-08-31T11:24:07.658Z,1.42
2022-08-31T11:26:45.200Z,6.78
2022-08-31T11:29:36.230Z,4.25
2022-08-31T11:32:23.917Z,4.72
2022-08-31T11:34:55.326Z,3.90
2022-08-31T11:37:54.450Z,1.73
2022-08-31T11:40:55.761Z,2.08
2022-08-31T11:43:31.540Z,1.73
2022-08-31T11:46:28.844Z,6.53
2022-08-31T11:48:55.865Z,4.53
2022-08-31T11:51:58.340Z,2.08
2022-08-31T11:54:26.795Z,1.00
2022-08-31T11:56:57.327Z,0.60
2022-08-31T11:59:35.406Z,4.40
2022-08-31T12:02:20.563Z,1.13
2022-08-31T12:04:53.729Z,6.30
2022-08-31T12:07:39.189Z,1.73
2022-08-31T12:10:15.197Z,5.80
2022-08-31T12:13:40.556Z,1.17
2022-08-31T12:16:37.337Z,4.57
2022-08-31T12:19:49.937Z,2.67
2022-08-31T12:23:29.994Z,2.20
2022-08-31T12:26:45.130Z,4.63
2022-08-31T12:29:31.994Z,1.33
2022-08-31T12:32:17.119Z,2.55
2022-08-31T12:35:08.895Z,2.58
2022-08-31T12:37:38.331Z,2.80
2022-08-31T12:40:21.257Z,1.30
2022-08-31T12:43:10.873Z,3.50
2022-08-31T12:46:03.167Z,2.58
2022-08-31T12:49:10.626Z,3.97
2022-08-31T12:52:21.938Z,4.82
2022-08-31T12:55:23.605Z,5.00
2022-08-31T12:58:24.539Z,0.80
2022-08-31T13:00:51.648Z,2.90
2022-08-31T13:03:24.405Z,6.35
2022-08-31T13:06:13.720Z,3.05
2022-08-31T13:08:50.178Z,3.28
2022-08-31T13:11:40.762Z,0.98
2022-08-31T13:14:39.918Z,2.08
2022-08-31T13:17:18.465Z,2.22
2022-08-31T13:19:58.740Z,1.27
2022-08-31T13:22:42.847Z,7.05
2022-08-31T13:25:23.803Z,0.60
2022-08-31T13:27:52.748Z,1.27
2022-08-31T13:30:25.389Z,2.78
2022-08-31T13:32:54.826Z,3.92
2022-08-31T13:35:26.073Z,2.67
2022-08-31T13:38:05.124Z,3.97
2022-08-31T13:40:40.105Z,3.17
2022-08-31T13:43:10.070Z,4.53
2022-08-31T13:45:57.970Z,1.38
2022-08-31T13:48:34.147Z,3.10
2022-08-31T13:51:13.186Z,4.57
2022-08-31T13:53:45.944Z,2.35
2022-08-31T13:56:57.674Z,1.83
2022-08-31T13:59:40.946Z,4.68
2022-08-31T14:02:16.595Z,5.60
2022-08-31T14:04:48.808Z,1.35
2022-08-31T14:07:39.303Z,0.93
2022-08-31T14:10:31.924Z,2.22
2022-08-31T14:13:14.182Z,2.15
2022-08-31T14:16:03.000Z,3.97
2022-08-31T14:18:55.944Z,3.92
2022-08-31T14:21:29.878Z,6.45
2022-08-31T14:24:02.831Z,0.65
2022-08-31T14:26:41.718Z,2.65
2022-08-31T14:29:17.919Z,1.30
2022-08-31T14:31:56.231Z,4.25
2022-08-31T14:34:32.173Z,1.95
2022-08-31T14:37:19.843Z,1.70
2022-08-31T14:40:05.520Z,2.90
2022-08-31T14:42:37.968Z,2.53
2022-08-31T14:45:08.355Z,5.55
2022-08-31T14:47:42.622Z,3.15
2022-08-31T14:50:13.355Z,1.50
2022-08-31T14:52:46.222Z,0.77
2022-08-31T14:55:14.705Z,2.97
2022-08-31T14:57:47.060Z,2.08
2022-08-31T15:00:21.872Z,3.05
2022-08-31T15:02:53.211Z,0.90
2022-08-31T15:05:23.866Z,1.02
2022-08-31T15:07:53.454Z,0.95
2022-08-31T15:10:25.225Z,1.20
2022-08-31T15:12:53.517Z,2.15
2022-08-31T15:15:20.948Z,0.85
2022-08-31T15:17:52.047Z,1.75
2022-08-31T15:20:22.655Z,2.75
2022-08-31T15:22:50.324Z,0.30
2022-08-31T15:25:18.463Z,2.70
2022-08-31T15:27:45.486Z,1.48
2022-08-31T15:30:19.228Z,1.23
2022-08-31T15:32:48.040Z,5.97
2022-08-31T15:35:24.422Z,4.32
2022-08-31T15:37:58.597Z,1.42
2022-08-31T15:40:35.476Z,2.28
2022-08-31T15:43:09.311Z,1.02
2022-08-31T15:45:36.853Z,2.63
2022-08-31T15:48:43.074Z,3.92
2022-08-31T15:51:23.476Z,1.77
2022-08-31T15:54:11.974Z,1.25
2022-08-31T15:56:40.944Z,3.45
2022-08-31T15:59:10.050Z,2.38
2022-08-31T16:01:38.297Z,1.33
2022-08-31T16:04:06.914Z,4.70
2022-08-31T16:06:34.935Z,2.55
2022-08-31T16:09:04.477Z,0.70
2022-08-31T16:11:37.220Z,3.97
2022-08-31T16:14:05.566Z,2.05
2022-08-31T16:16:38.737Z,1.17
2022-08-31T16:19:08.809Z,6.30
2022-08-31T16:21:39.941Z,0.95
2022-08-31T16:24:09.646Z,0.85
2022-08-31T16:26:40.971Z,1.50
2022-08-31T16:29:13.075Z,2.08
2022-08-31T16:31:42.311Z,1.92
2022-08-31T16:34:09.644Z,5.25
2022-08-31T16:36:36.959Z,1.38
2022-08-31T16:39:04.133Z,3.30
2022-08-31T16:41:33.070Z,3.20
2022-08-31T16:44:19.000Z,2.67
2022-08-31T16:46:46.743Z,1.95
2022-08-31T16:49:32.365Z,0.98
2022-08-31T16:54:28.655Z,3.25
2022-08-31T16:56:57.620Z,4.53
2022-08-31T16:59:29.790Z,2.42
2022-08-31T17:01:57.192Z,1.60
2022-08-31T17:04:50.582Z,1.83
2022-08-31T17:07:14.690Z,0.98
2022-08-31T17:09:42.366Z,1.02
2022-08-31T17:12:14.156Z,4.65
2022-08-31T17:14:50.289Z,2.85
2022-08-31T17:17:23.969Z,2.75
2022-08-31T17:19:54.012Z,0.98
2022-08-31T17:22:29.911Z,6.18
2022-08-31T17:25:03.971Z,1.52
2022-08-31T17:27:33.480Z,2.63
2022-08-31T17:30:05.278Z,0.98
2022-08-31T17:32:32.458Z,1.38
2022-08-31T17:34:59.814Z,3.90
2022-08-31T17:37:36.083Z,6.20
2022-08-31T17:40:08.038Z,2.72
2022-08-31T17:42:35.725Z,1.30
2022-08-31T17:45:05.674Z,0.80
2022-08-31T17:47:33.226Z,1.27
2022-08-31T17:50:00.526Z,4.95
2022-08-31T17:52:28.185Z,1.30
2022-08-31T17:54:55.245Z,2.97
2022-08-31T17:57:26.223Z,1.25
2022-08-31T17:59:55.115Z,3.38
2022-08-31T18:02:27.587Z,8.35
2022-08-31T18:04:54.901Z,1.42
2022-08-31T18:07:21.851Z,2.65
2022-08-31T18:09:48.940Z,1.65
2022-08-31T18:12:16.900Z,2.53
2022-08-31T18:14:44.607Z,0.90
2022-08-31T18:17:16.103Z,6.30
2022-08-31T18:19:44.720Z,5.20
2022-08-31T18:22:14.113Z,2.28
2022-08-31T18:24:42.805Z,8.55
2022-08-31T18:27:15.078Z,12.30
2022-08-31T18:29:44.043Z,25.85
2022-08-31T18:32:11.979Z,24.75
2022-08-31T18:34:46.205Z,16.02
2022-08-31T18:37:14.988Z,15.18
2022-08-31T18:40:04.180Z,15.93
2022-08-31T18:42:52.415Z,17.85
2022-08-31T18:45:19.915Z,21.60
2022-08-31T18:48:21.271Z,20.05
2022-08-31T18:50:44.093Z,21.63
2022-08-31T18:53:15.041Z,15.93
2022-08-31T18:55:43.842Z,16.48
2022-08-31T18:58:11.246Z,7.82
2022-08-31T19:00:40.118Z,9.95
2022-08-31T19:03:07.565Z,9.85
2022-08-31T19:05:39.317Z,8.80
2022-08-31T19:08:06.290Z,7.50
2022-08-31T19:10:34.707Z,6.25
2022-08-31T19:13:07.328Z,7.78
2022-08-31T19:15:39.865Z,7.78
2022-08-31T19:18:07.776Z,13.13
2022-08-31T19:20:35.563Z,4.28
2022-08-31T19:23:02.660Z,3.70
2022-08-31T19:25:30.126Z,2.45
2022-08-31T19:27:57.006Z,2.03
2022-08-31T19:30:28.096Z,3.20
2022-08-31T19:32:56.550Z,2.00
2022-08-31T19:35:26.940Z,0.80
2022-08-31T19:37:56.157Z,4.47
2022-08-31T19:40:35.490Z,3.03
2022-08-31T19:45:50.903Z,2.83
2022-08-31T19:48:23.050Z,1.50
2022-08-31T19:50:50.245Z,4.20
2022-08-31T19:53:20.770Z,1.20
2022-08-31T19:55:51.502Z,6.70
2022-08-31T19:58:25.416Z,5.38
2022-08-31T20:01:00.588Z,4.88
2022-08-31T20:03:31.232Z,2.50
2022-08-31T20:05:59.616Z,8.55
2022-08-31T20:08:26.533Z,2.83
2022-08-31T20:10:53.516Z,8.63
2022-08-31T20:13:27.642Z,1.13
2022-08-31T20:15:56.030Z,2.45
2022-08-31T20:18:26.162Z,4.53
2022-08-31T20:20:54.981Z,2.90
2022-08-31T20:23:22.036Z,3.13
2022-08-31T20:25:51.149Z,5.13
2022-08-31T20:28:26.043Z,3.35
2022-08-31T20:30:58.977Z,1.90
2022-08-31T20:33:27.635Z,1.88
2022-08-31T20:35:54.566Z,1.33
2022-08-31T20:38:21.696Z,4.47
2022-08-31T20:40:53.026Z,1.38
2022-08-31T20:43:21.865Z,3.33
2022-08-31T20:45:50.252Z,7.68
2022-08-31T20:48:35.619Z,1.92
2022-08-31T20:51:21.253Z,1.17
2022-08-31T20:53:48.878Z,3.10
2022-08-31T20:56:18.319Z,3.08
2022-08-31T20:58:46.521Z,6.13
2022-08-31T21:01:16.004Z,2.53
2022-08-31T21:03:43.046Z,0.73
2022-08-31T21:06:14.474Z,3.65
2022-08-31T21:08:46.085Z,2.70
2022-08-31T21:11:16.602Z,2.53
2022-08-31T21:13:45.528Z,5.30
2022-08-31T21:16:17.851Z,3.35
2022-08-31T21:18:47.204Z,1.52
2022-08-31T21:21:16.462Z,2.20
2022-08-31T21:23:48.329Z,3.38
2022-08-31T21:26:21.569Z,0.40
2022-08-31T21:28:49.841Z,7.05
2022-08-31T21:31:28.504Z,2.47
2022-08-31T21:34:00.967Z,0.75
2022-08-31T21:36:29.511Z,3.22
2022-08-31T21:38:59.827Z,4.68
2022-08-31T21:41:28.949Z,3.60
2022-08-31T21:43:57.342Z,1.42
2022-08-31T21:46:28.111Z,5.25
2022-08-31T21:48:58.923Z,2.60
2022-08-31T21:51:33.483Z,1.10
2022-08-31T21:54:06.765Z,1.42
2022-08-31T21:56:40.517Z,1.73
2022-08-31T21:59:07.605Z,2.28
2022-08-31T22:01:35.317Z,1.88
2022-08-31T22:04:06.168Z,4.50
2022-08-31T22:06:34.654Z,2.15
2022-08-31T22:09:11.922Z,0.93
2022-08-31T22:11:45.559Z,1.80
2022-08-31T22:14:16.907Z,2.17
2022-08-31T22:16:46.505Z,2.97
2022-08-31T22:19:17.714Z,3.90
2022-08-31T22:21:49.301Z,3.35
2022-08-31T22:24:27.505Z,1.10
2022-08-31T22:26:57.972Z,2.55
2022-08-31T22:29:29.263Z,5.70
2022-08-31T22:32:00.961Z,1.95
2022-08-31T22:34:28.110Z,1.77
2022-08-31T22:36:56.653Z,8.68
2022-08-31T22:39:30.045Z,1.85
2022-08-31T22:41:59.149Z,1.50
2022-08-31T22:44:32.238Z,2.60
2022-08-31T22:46:59.267Z,2.15
2022-08-31T22:49:27.026Z,1.63
2022-08-31T22:51:54.457Z,1.00
2022-08-31T22:54:22.838Z,4.20
2022-08-31T22:56:50.048Z,1.45
2022-08-31T22:59:26.038Z,5.25
2022-08-31T23:01:56.916Z,2.30
2022-08-31T23:04:27.531Z,1.25
2022-08-31T23:06:56.996Z,1.23
2022-08-31T23:09:27.691Z,1.02
2022-08-31T23:11:56.465Z,1.33
2022-08-31T23:14:24.306Z,2.78
2022-08-31T23:16:57.014Z,0.90
2022-08-31T23:19:54.236Z,2.75
2022-08-31T23:22:24.529Z,6.43
2022-08-31T23:24:51.748Z,3.83
2022-08-31T23:27:21.661Z,0.98
2022-08-31T23:29:53.074Z,3.35
2022-08-31T23:32:23.368Z,3.80
2022-08-31T23:34:52.486Z,1.50
2022-08-31T23:37:25.621Z,2.03
2022-08-31T23:39:54.604Z,2.92
2022-08-31T23:42:24.450Z,4.05
2022-08-31T23:44:52.190Z,1.95
2022-08-31T23:47:26.820Z,2.88
2022-08-31T23:49:54.366Z,0.77
2022-08-31T23:52:28.185Z,2.40
2022-08-31T23:54:59.277Z,1.52
2022-08-31T23:57:33.127Z,3.63
